Talkeetna Airport
PATK : rendu visible

Aérodrome :











RETROUVEZ-NOUS SUR...

 
LOGIN :

S'inscrire | Disclaimer

   EN    FR    IT 

 









Légende :    VFR   VFR Marginal   IFR   IFR Intensif   IFR Très Intensif
Visi : 
Plafond : 
>= 8 km
>= 3000ft
5 à 8 km
1000 à 3000 ft
1500m à 5 km
500 à 1000 ft
800 à 1500m
200 à 500 ft
< 800m
< 200 ft
Symboles :   Orages  Brouillard  Fortes neiges  Fortes précipitations  Vent > 20 kt






- Altitude de l'aérodrome : 358 ft


PATK - Talkeetna

DERNIER METAR :
  • 171453Z AUTO 02012G18KT 1 1/2SM -SN OVC019 M11/M14 A2993 RMK AO2 SLP146 P0001 60002 T11061144 58017 TSNO $

METARs EXPIRÉS :
  • 171432Z AUTO 03012G18KT 1SM -SN VV014 M11/M14 A2994 RMK AO2 P0000 T11061144 TSNO $
  • 171412Z AUTO 02010G19KT 3/4SM -SN VV014 M11/M14 A2994 RMK AO2 P0000 T11061144 TSNO $
  • 171401Z AUTO 02011G18KT 1SM -SN VV020 M11/M15 A2995 RMK AO2 P0000 T11061150 TSNO $
  • 171345Z AUTO 02012G19KT 3SM -SN OVC036 M11/M15 A2996 RMK AO2 P0000 T11061150 TSNO $
  • 171338Z AUTO 02012KT 2 1/2SM -SN OVC040 M11/M15 A2997 RMK AO2 P0000 T11061150 TSNO $
  • 171326Z AUTO 02012G19KT 1 1/2SM -SN BKN037 OVC043 M11/M15 A2997 RMK AO2 P0000 T11061150 TSNO $
  • 171303Z AUTO 02013G20KT 1 1/4SM -SN BKN018 OVC042 M11/M15 A2997 RMK AO2 P0000 T11061150 TSNO $
  • 171253Z AUTO 03012G19KT 1 1/4SM -SN OVC014 M11/M15 A2998 RMK AO2 SLP160 P0001 T11061150 TSNO $
  • 171243Z AUTO 02011KT 1SM -SN VV014 M11/M15 A2998 RMK AO2 P0000 T11061150 TSNO $
  • 171230Z AUTO 02009G17KT 1SM -SN VV018 M11/M15 A2998 RMK AO2 P0000 T11061150 TSNO $
  • 171209Z AUTO 02012G19KT 2 1/2SM -SN OVC026 M11/M15 A2998 RMK AO2 P0000 T11061150 TSNO $

TAF PATK
Valide du 17 à 12h jusqu'au 18 à 12h UTC


171147Z 1712/1812 02008G15KT 1 1/2SM -SN OVC010
FM180000 02015G22KT P6SM SCT020 OVC035
FM180600 02012G20KT P6SM SCT020 OVC030



MET'MAP, la Météo Aéronautique d'un coup d'oeil ! - Copyright ORBIFLY Décembre 2007 - Disclaimer

ORBIFLY MET'MAP TEAM :

Programmation & Développement : Alexandra Zaïnal
Sur une idée originale de : Baudouin d'Aumeries
Assistance à la programmation : Marc-Olivier Méhu
Soutien technique & logistique : Manuel Goepfert

Contact : metmap@orbifly.com




SOURCES & CREDITS :

   NOAA       Earth
Advisory